createdAt,value
2022-12-07T00:00:50.691Z,2.00
2022-12-07T00:03:17.462Z,2.88
2022-12-07T00:05:44.301Z,2.28
2022-12-07T00:08:10.939Z,2.35
2022-12-07T00:10:37.604Z,2.03
2022-12-07T00:13:04.239Z,2.25
2022-12-07T00:15:30.929Z,2.40
2022-12-07T00:17:57.531Z,2.05
2022-12-07T00:20:24.270Z,2.10
2022-12-07T00:22:50.835Z,2.45
2022-12-07T00:25:17.541Z,3.03
2022-12-07T00:27:44.164Z,2.30
2022-12-07T00:30:10.905Z,2.60
2022-12-07T00:32:37.476Z,2.90
2022-12-07T00:35:04.350Z,2.92
2022-12-07T00:37:31.019Z,2.90
2022-12-07T00:39:57.744Z,3.28
2022-12-07T00:42:24.435Z,3.50
2022-12-07T00:44:51.047Z,2.55
2022-12-07T00:47:17.683Z,3.10
2022-12-07T00:49:44.304Z,3.95
2022-12-07T00:52:10.949Z,3.55
2022-12-07T00:54:37.620Z,3.47
2022-12-07T00:57:04.368Z,3.40
2022-12-07T00:59:31.031Z,3.50
2022-12-07T01:01:57.853Z,3.47
2022-12-07T01:04:24.547Z,3.63
2022-12-07T01:06:51.219Z,3.50
2022-12-07T01:09:17.874Z,3.30
2022-12-07T01:11:44.509Z,3.42
2022-12-07T01:14:11.109Z,3.10
2022-12-07T01:16:37.846Z,3.45
2022-12-07T01:19:04.602Z,3.58
2022-12-07T01:21:32.969Z,3.63
2022-12-07T01:23:59.722Z,4.07
2022-12-07T01:26:27.150Z,3.90
2022-12-07T01:28:53.883Z,4.75
2022-12-07T01:31:22.244Z,4.15
2022-12-07T01:33:50.563Z,4.95
2022-12-07T01:36:21.000Z,4.40
2022-12-07T01:38:48.949Z,3.95
2022-12-07T01:41:15.623Z,4.65
2022-12-07T01:44:07.255Z,4.30
2022-12-07T01:46:33.904Z,3.67
2022-12-07T01:49:00.783Z,4.30
2022-12-07T01:51:27.370Z,3.72
2022-12-07T01:53:53.992Z,3.53
2022-12-07T01:56:21.709Z,3.60
2022-12-07T01:58:48.352Z,3.97
2022-12-07T02:01:18.050Z,4.03
2022-12-07T02:03:44.965Z,3.47
2022-12-07T02:06:15.478Z,3.75
2022-12-07T02:08:42.397Z,3.47
2022-12-07T02:11:09.107Z,3.50
2022-12-07T02:13:37.111Z,4.00
2022-12-07T02:16:25.492Z,4.18
2022-12-07T02:19:01.385Z,4.00
2022-12-07T02:21:35.082Z,4.18
2022-12-07T02:24:24.672Z,4.03
2022-12-07T02:27:22.345Z,4.35
2022-12-07T02:30:18.880Z,3.80
2022-12-07T02:33:15.006Z,3.35
2022-12-07T02:35:46.017Z,3.78
2022-12-07T02:38:17.251Z,4.18
2022-12-07T02:40:59.028Z,4.05
2022-12-07T02:43:30.768Z,4.28
2022-12-07T02:46:05.711Z,3.65
2022-12-07T02:48:33.343Z,4.05
2022-12-07T02:50:59.984Z,3.85
2022-12-07T02:53:36.706Z,3.50
2022-12-07T02:56:32.015Z,3.35
2022-12-07T02:59:36.292Z,4.07
2022-12-07T03:02:18.542Z,3.45
2022-12-07T03:05:01.731Z,3.30
2022-12-07T03:07:48.638Z,3.60
2022-12-07T03:10:18.084Z,3.55
2022-12-07T03:13:10.361Z,3.92
2022-12-07T03:15:45.557Z,4.05
2022-12-07T03:18:12.688Z,4.35
2022-12-07T03:20:39.288Z,4.45
2022-12-07T03:23:06.920Z,4.28
2022-12-07T03:25:33.528Z,3.70
2022-12-07T03:28:05.316Z,4.32
2022-12-07T03:30:35.909Z,3.45
2022-12-07T03:33:31.318Z,3.35
2022-12-07T03:36:18.369Z,2.53
2022-12-07T03:39:14.681Z,2.70
2022-12-07T03:41:45.221Z,2.65
2022-12-07T03:44:12.156Z,1.75
2022-12-07T03:46:43.989Z,2.58
2022-12-07T03:49:31.898Z,2.10
2022-12-07T03:52:21.988Z,2.15
2022-12-07T03:55:00.793Z,2.30
2022-12-07T03:57:27.929Z,2.00
2022-12-07T03:59:55.700Z,1.88
2022-12-07T04:02:22.546Z,2.10
2022-12-07T04:04:49.120Z,1.88
2022-12-07T04:07:15.769Z,2.15
2022-12-07T04:09:42.359Z,2.03
2022-12-07T04:12:08.974Z,1.80
2022-12-07T04:14:35.711Z,1.80
2022-12-07T04:17:02.369Z,2.38
2022-12-07T04:19:30.552Z,2.38
2022-12-07T04:21:57.631Z,2.40
2022-12-07T04:24:24.348Z,2.50
2022-12-07T04:26:50.971Z,1.92
2022-12-07T04:29:17.726Z,2.05
2022-12-07T04:31:44.475Z,1.92
2022-12-07T04:34:11.811Z,2.25
2022-12-07T04:36:38.785Z,1.92
2022-12-07T04:39:05.721Z,2.58
2022-12-07T04:41:32.406Z,2.50
2022-12-07T04:44:00.769Z,2.55
2022-12-07T04:46:27.662Z,2.42
2022-12-07T04:48:54.547Z,2.17
2022-12-07T04:51:22.925Z,2.10
2022-12-07T04:53:49.679Z,2.10
2022-12-07T04:56:16.780Z,2.03
2022-12-07T04:58:44.049Z,2.05
2022-12-07T05:01:10.811Z,2.08
2022-12-07T05:03:37.920Z,2.05
2022-12-07T05:06:07.930Z,1.98
2022-12-07T05:08:38.583Z,1.67
2022-12-07T05:11:05.726Z,1.98
2022-12-07T05:13:32.827Z,2.42
2022-12-07T05:15:59.530Z,1.73
2022-12-07T05:18:26.347Z,2.20
2022-12-07T05:20:52.999Z,2.00
2022-12-07T05:23:19.763Z,2.40
2022-12-07T05:25:46.395Z,1.95
2022-12-07T05:28:12.992Z,2.10
2022-12-07T05:30:39.672Z,2.40
2022-12-07T05:33:06.351Z,2.10
2022-12-07T05:35:32.987Z,2.42
2022-12-07T05:37:59.647Z,1.90
2022-12-07T05:40:26.303Z,1.52
2022-12-07T05:42:52.927Z,1.95
2022-12-07T05:45:19.565Z,2.08
2022-12-07T05:47:46.287Z,18.25
2022-12-07T05:50:12.924Z,3.17
2022-12-07T05:52:39.569Z,7.45
2022-12-07T05:55:06.790Z,6.90
2022-12-07T05:57:33.414Z,2.53
2022-12-07T06:00:00.534Z,1.60
2022-12-07T06:02:27.635Z,1.75
2022-12-07T06:04:54.336Z,1.35
2022-12-07T06:07:21.237Z,1.83
2022-12-07T06:09:48.242Z,1.70
2022-12-07T06:12:15.162Z,2.70
2022-12-07T06:14:42.390Z,1.92
2022-12-07T06:17:09.279Z,1.55
2022-12-07T06:19:35.941Z,2.28
2022-12-07T06:22:02.761Z,11.13
2022-12-07T06:24:29.387Z,10.05
2022-12-07T06:26:56.072Z,9.80
2022-12-07T06:29:22.721Z,8.00
2022-12-07T06:31:49.465Z,8.20
2022-12-07T06:34:17.886Z,7.53
2022-12-07T06:36:44.701Z,3.67
2022-12-07T06:39:11.503Z,2.42
2022-12-07T06:41:38.710Z,2.50
2022-12-07T06:44:06.069Z,2.03
2022-12-07T06:46:33.086Z,2.28
2022-12-07T06:48:59.825Z,2.58
2022-12-07T06:51:26.850Z,2.03
2022-12-07T06:53:53.555Z,2.03
2022-12-07T06:56:20.219Z,2.60
2022-12-07T06:58:46.848Z,2.60
2022-12-07T07:01:14.712Z,3.75
2022-12-07T07:03:41.435Z,4.03
2022-12-07T07:06:08.299Z,5.57
2022-12-07T07:08:36.069Z,4.15
2022-12-07T07:11:02.756Z,3.60
2022-12-07T07:13:29.575Z,2.63
2022-12-07T07:15:56.232Z,2.92
2022-12-07T07:18:22.904Z,4.43
2022-12-07T07:20:50.762Z,3.20
2022-12-07T07:23:17.404Z,3.50
2022-12-07T07:25:44.330Z,4.07
2022-12-07T07:28:11.000Z,3.15
2022-12-07T07:30:37.895Z,3.85
2022-12-07T07:33:04.722Z,3.72
2022-12-07T07:35:32.001Z,2.53
2022-12-07T07:37:58.837Z,3.35
2022-12-07T07:40:25.822Z,3.22
2022-12-07T07:42:53.748Z,3.03
2022-12-07T07:45:22.705Z,3.15
2022-12-07T07:47:50.840Z,3.20
2022-12-07T07:50:17.960Z,3.83
2022-12-07T07:52:44.847Z,4.10
2022-12-07T07:55:11.601Z,3.80
2022-12-07T07:57:38.863Z,2.95
2022-12-07T08:00:06.773Z,2.63
2022-12-07T08:02:33.590Z,2.88
2022-12-07T08:05:00.212Z,1.88
2022-12-07T08:07:28.255Z,2.17
2022-12-07T08:09:55.099Z,2.17
2022-12-07T08:12:21.837Z,2.22
2022-12-07T08:14:48.689Z,2.40
2022-12-07T08:17:15.401Z,2.22
2022-12-07T08:19:42.041Z,2.28
2022-12-07T08:22:08.831Z,1.67
2022-12-07T08:24:38.434Z,2.55
2022-12-07T08:27:05.070Z,2.58
2022-12-07T08:29:31.882Z,3.10
2022-12-07T08:31:58.472Z,2.65
2022-12-07T08:34:27.560Z,3.40
2022-12-07T08:36:54.138Z,2.63
2022-12-07T08:39:31.357Z,2.30
2022-12-07T08:41:58.920Z,3.78
2022-12-07T08:44:25.691Z,5.28
2022-12-07T08:47:03.674Z,4.30
2022-12-07T08:49:36.577Z,5.55
2022-12-07T08:52:03.908Z,3.95
2022-12-07T08:54:30.534Z,4.82
2022-12-07T08:56:59.429Z,4.65
2022-12-07T08:59:26.656Z,5.45
2022-12-07T09:01:53.551Z,5.47
2022-12-07T09:04:20.289Z,6.10
2022-12-07T09:06:47.013Z,2.95
2022-12-07T09:09:14.381Z,2.13
2022-12-07T09:11:41.006Z,2.28
2022-12-07T09:14:07.680Z,1.20
2022-12-07T09:16:34.405Z,0.70
2022-12-07T09:19:01.074Z,0.90
2022-12-07T09:21:27.766Z,0.93
2022-12-07T09:23:54.415Z,0.70
2022-12-07T09:26:21.055Z,0.75
2022-12-07T09:28:47.709Z,0.80
2022-12-07T09:31:23.430Z,0.93
2022-12-07T09:34:01.324Z,0.80
2022-12-07T09:36:28.249Z,1.10
2022-12-07T09:38:54.910Z,1.23
2022-12-07T09:41:22.035Z,1.00
2022-12-07T09:43:48.662Z,1.55
2022-12-07T09:46:16.590Z,1.45
2022-12-07T09:48:43.334Z,1.10
2022-12-07T09:51:22.731Z,1.30
2022-12-07T09:53:50.653Z,1.05
2022-12-07T09:56:18.027Z,1.08
2022-12-07T09:58:44.817Z,0.60
2022-12-07T10:01:16.532Z,0.80
2022-12-07T10:03:48.629Z,0.80
2022-12-07T10:06:15.280Z,1.10
2022-12-07T10:08:42.030Z,0.68
2022-12-07T10:11:08.724Z,1.05
2022-12-07T10:13:35.307Z,1.00
2022-12-07T10:16:06.944Z,1.20
2022-12-07T10:18:38.494Z,1.30
2022-12-07T10:21:10.939Z,1.00
2022-12-07T10:23:38.853Z,1.15
2022-12-07T10:26:30.084Z,1.00
2022-12-07T10:28:59.312Z,1.25
2022-12-07T10:31:25.982Z,1.10
2022-12-07T10:33:56.485Z,1.65
2022-12-07T10:36:36.790Z,1.23
2022-12-07T10:39:13.677Z,1.88
2022-12-07T10:41:59.677Z,2.05
2022-12-07T10:44:30.847Z,1.52
2022-12-07T10:46:57.634Z,2.00
2022-12-07T10:49:33.195Z,1.50
2022-12-07T10:52:06.542Z,1.00
2022-12-07T10:54:46.201Z,1.30
2022-12-07T10:58:03.738Z,1.10
2022-12-07T11:00:45.050Z,1.25
2022-12-07T11:03:38.261Z,0.68
2022-12-07T11:06:14.085Z,0.98
2022-12-07T11:08:50.714Z,0.80
2022-12-07T11:11:39.888Z,0.85
2022-12-07T11:14:32.626Z,1.10
2022-12-07T11:17:21.352Z,0.50
2022-12-07T11:19:50.717Z,0.90
2022-12-07T11:22:31.629Z,0.60
2022-12-07T11:25:27.238Z,0.52
2022-12-07T11:27:58.488Z,0.73
2022-12-07T11:30:48.528Z,1.10
2022-12-07T11:33:20.372Z,0.80
2022-12-07T11:35:51.382Z,0.70
2022-12-07T11:38:22.141Z,0.95
2022-12-07T11:40:55.802Z,1.38
2022-12-07T11:43:29.794Z,1.00
2022-12-07T11:46:04.829Z,1.30
2022-12-07T11:48:50.480Z,1.30
2022-12-07T11:51:17.103Z,1.67
2022-12-07T11:53:48.252Z,1.58
2022-12-07T11:56:20.216Z,1.35
2022-12-07T11:58:55.305Z,1.60
2022-12-07T12:01:41.265Z,1.40
2022-12-07T12:04:11.079Z,1.30
2022-12-07T12:06:45.130Z,1.00
2022-12-07T12:09:39.299Z,1.05
2022-12-07T12:15:35.522Z,0.90
2022-12-07T12:18:12.208Z,0.70
2022-12-07T12:20:38.764Z,0.40
2022-12-07T12:23:26.074Z,0.47
2022-12-07T12:25:55.450Z,0.65
2022-12-07T12:28:27.306Z,0.50
2022-12-07T12:31:06.321Z,0.88
2022-12-07T12:33:33.013Z,0.68
2022-12-07T12:36:36.990Z,0.63
2022-12-07T12:39:09.504Z,0.52
2022-12-07T12:41:39.073Z,0.40
2022-12-07T12:44:17.809Z,0.30
2022-12-07T12:46:57.514Z,0.38
2022-12-07T12:49:24.226Z,0.47
2022-12-07T12:51:57.743Z,0.70
2022-12-07T12:54:34.466Z,0.40
2022-12-07T12:57:05.865Z,0.32
2022-12-07T12:59:33.645Z,0.57
2022-12-07T13:02:16.691Z,0.45
2022-12-07T13:05:17.328Z,0.40
2022-12-07T13:10:28.949Z,0.75
2022-12-07T13:12:59.181Z,0.50
2022-12-07T13:15:36.750Z,0.52
2022-12-07T13:18:05.394Z,0.32
2022-12-07T13:20:46.585Z,0.63
2022-12-07T13:23:13.821Z,0.77
2022-12-07T13:25:53.746Z,1.00
2022-12-07T13:28:20.768Z,1.02
2022-12-07T13:31:25.033Z,1.52
2022-12-07T13:33:51.770Z,0.88
2022-12-07T13:36:32.700Z,0.93
2022-12-07T13:39:00.358Z,1.13
2022-12-07T13:41:30.324Z,0.60
2022-12-07T13:44:14.044Z,0.70
2022-12-07T13:47:09.926Z,0.63
2022-12-07T13:49:52.989Z,0.93
2022-12-07T13:52:21.493Z,0.70
2022-12-07T13:54:49.501Z,0.80
2022-12-07T13:57:17.500Z,0.85
2022-12-07T13:59:44.150Z,0.73
2022-12-07T14:02:32.379Z,0.70
2022-12-07T14:05:10.594Z,0.80
2022-12-07T14:07:41.973Z,0.50
2022-12-07T14:10:33.990Z,0.80
2022-12-07T14:13:03.010Z,0.50
2022-12-07T14:15:34.150Z,0.50
2022-12-07T14:18:01.872Z,0.80
2022-12-07T14:20:36.761Z,0.82
2022-12-07T14:23:03.588Z,0.90
2022-12-07T14:25:33.273Z,0.73
2022-12-07T14:28:01.105Z,0.60
2022-12-07T14:30:29.573Z,1.00
2022-12-07T14:33:04.032Z,1.13
2022-12-07T14:35:30.928Z,0.73
2022-12-07T14:37:58.603Z,1.00
2022-12-07T14:40:28.631Z,0.93
2022-12-07T14:43:04.094Z,1.00
2022-12-07T14:45:30.858Z,1.30
2022-12-07T14:53:40.155Z,1.20
2022-12-07T14:56:07.296Z,1.17
2022-12-07T14:58:34.020Z,1.10
2022-12-07T15:01:01.028Z,1.40
2022-12-07T15:03:28.065Z,1.50
2022-12-07T15:05:54.757Z,1.17
2022-12-07T15:08:21.496Z,1.40
2022-12-07T15:10:48.325Z,1.80
2022-12-07T15:13:15.005Z,1.80
2022-12-07T15:15:41.653Z,1.45
2022-12-07T15:18:08.391Z,1.73
2022-12-07T15:20:35.212Z,1.60
2022-12-07T15:23:02.051Z,2.08
2022-12-07T15:25:28.746Z,1.50
2022-12-07T15:27:55.470Z,1.23
2022-12-07T15:30:22.136Z,1.35
2022-12-07T15:32:52.371Z,1.30
2022-12-07T15:35:19.558Z,1.52
2022-12-07T15:37:46.262Z,1.65
2022-12-07T15:40:13.463Z,1.70
2022-12-07T15:42:40.182Z,1.92
2022-12-07T15:45:08.472Z,1.80
2022-12-07T15:48:11.684Z,2.03
2022-12-07T15:50:27.267Z,2.35
2022-12-07T15:52:54.089Z,1.88
2022-12-07T15:55:20.726Z,2.05
2022-12-07T15:57:47.446Z,1.70
2022-12-07T16:00:14.555Z,2.20
2022-12-07T16:02:41.216Z,1.83
2022-12-07T16:05:08.104Z,1.92
2022-12-07T16:07:34.848Z,2.17
2022-12-07T16:10:01.695Z,3.10
2022-12-07T16:12:52.851Z,2.80
2022-12-07T16:15:24.292Z,2.65
2022-12-07T16:18:07.849Z,3.10
2022-12-07T16:20:34.599Z,2.70
2022-12-07T16:23:01.459Z,2.97
2022-12-07T16:25:28.213Z,2.03
2022-12-07T16:27:55.036Z,1.55
2022-12-07T16:30:21.883Z,1.65
2022-12-07T16:32:48.552Z,2.30
2022-12-07T16:35:15.198Z,1.85
2022-12-07T16:37:44.800Z,1.42
2022-12-07T16:40:12.348Z,1.40
2022-12-07T16:42:38.985Z,2.55
2022-12-07T16:45:06.420Z,1.60
2022-12-07T16:47:33.270Z,1.33
2022-12-07T16:49:59.942Z,1.70
2022-12-07T16:52:26.690Z,1.30
2022-12-07T16:54:53.402Z,1.10
2022-12-07T16:57:23.105Z,0.90
2022-12-07T16:59:51.246Z,0.88
2022-12-07T17:02:18.542Z,1.98
2022-12-07T17:04:57.191Z,0.77
2022-12-07T17:07:25.590Z,0.90
2022-12-07T17:09:53.770Z,0.80
2022-12-07T17:12:24.433Z,1.00
2022-12-07T17:14:51.112Z,1.52
2022-12-07T17:17:17.818Z,1.63
2022-12-07T17:19:45.262Z,1.02
2022-12-07T17:22:12.012Z,1.30
2022-12-07T17:24:39.089Z,1.00
2022-12-07T17:27:05.931Z,1.05
2022-12-07T17:29:33.263Z,1.10
2022-12-07T17:32:00.052Z,1.60
2022-12-07T17:34:26.928Z,1.05
2022-12-07T17:36:53.593Z,1.17
2022-12-07T17:39:20.347Z,0.90
2022-12-07T17:41:47.168Z,3.60
2022-12-07T17:44:15.547Z,5.53
2022-12-07T17:46:42.315Z,4.40
2022-12-07T17:49:08.998Z,3.95
2022-12-07T17:51:35.683Z,3.30
2022-12-07T17:54:02.368Z,2.55
2022-12-07T17:56:29.600Z,2.22
2022-12-07T17:58:56.457Z,1.60
2022-12-07T18:01:24.242Z,1.58
2022-12-07T18:03:51.473Z,2.13
2022-12-07T18:06:18.163Z,2.05
2022-12-07T18:08:44.819Z,2.13
2022-12-07T18:11:11.496Z,1.67
2022-12-07T18:13:38.199Z,2.50
2022-12-07T18:16:10.079Z,1.55
2022-12-07T18:18:36.922Z,1.65
2022-12-07T18:21:16.918Z,2.03
2022-12-07T18:23:51.086Z,2.30
2022-12-07T18:26:19.481Z,1.90
2022-12-07T18:28:46.150Z,1.65
2022-12-07T18:31:15.550Z,0.93
2022-12-07T18:33:44.011Z,1.00
2022-12-07T18:36:10.894Z,1.92
2022-12-07T18:38:37.713Z,1.20
2022-12-07T18:41:06.700Z,1.15
2022-12-07T18:43:33.318Z,1.40
2022-12-07T18:46:00.023Z,1.48
2022-12-07T18:48:26.731Z,1.15
2022-12-07T18:51:03.226Z,1.02
2022-12-07T18:53:30.174Z,1.00
2022-12-07T18:56:07.856Z,1.20
2022-12-07T18:58:34.681Z,1.77
2022-12-07T19:01:01.508Z,1.30
2022-12-07T19:03:33.002Z,2.50
2022-12-07T19:06:05.225Z,1.90
2022-12-07T19:08:31.883Z,2.20
2022-12-07T19:10:58.605Z,1.50
2022-12-07T19:13:25.431Z,1.63
2022-12-07T19:15:52.271Z,2.15
2022-12-07T19:18:18.930Z,1.58
2022-12-07T19:20:46.633Z,1.80
2022-12-07T19:23:13.297Z,1.98
2022-12-07T19:25:40.435Z,1.70
2022-12-07T19:28:07.113Z,2.03
2022-12-07T19:30:33.783Z,2.00
2022-12-07T19:33:00.478Z,2.47
2022-12-07T19:35:27.133Z,3.08
2022-12-07T19:37:53.804Z,2.38
2022-12-07T19:40:20.684Z,2.72
2022-12-07T19:42:47.366Z,2.22
2022-12-07T19:45:14.163Z,1.95
2022-12-07T19:47:40.889Z,2.28
2022-12-07T19:50:08.088Z,2.08
2022-12-07T19:52:37.007Z,2.70
2022-12-07T19:55:06.485Z,2.40
2022-12-07T19:57:33.643Z,3.20
2022-12-07T20:00:00.540Z,3.80
2022-12-07T20:02:27.284Z,3.50
2022-12-07T20:04:53.892Z,5.22
2022-12-07T20:07:20.583Z,4.63
2022-12-07T20:09:47.260Z,4.90
2022-12-07T20:12:13.904Z,5.13
2022-12-07T20:14:40.535Z,4.47
2022-12-07T20:17:08.503Z,3.90
2022-12-07T20:19:38.346Z,4.32
2022-12-07T20:22:05.201Z,4.38
2022-12-07T20:24:34.255Z,4.32
2022-12-07T20:27:01.454Z,4.50
2022-12-07T20:29:28.155Z,3.25
2022-12-07T20:31:54.953Z,4.57
2022-12-07T20:34:24.346Z,3.97
2022-12-07T20:36:51.579Z,5.15
2022-12-07T20:39:18.309Z,4.47
2022-12-07T20:41:45.126Z,4.90
2022-12-07T20:44:15.367Z,5.80
2022-12-07T20:46:42.276Z,5.28
2022-12-07T20:49:09.802Z,6.00
2022-12-07T20:51:36.649Z,6.20
2022-12-07T20:54:03.641Z,5.60
2022-12-07T20:56:31.916Z,6.40
2022-12-07T20:59:03.336Z,6.45
2022-12-07T21:01:30.358Z,7.05
2022-12-07T21:04:01.151Z,6.18
2022-12-07T21:06:28.719Z,7.18
2022-12-07T21:08:58.031Z,6.57
2022-12-07T21:11:25.397Z,6.90
2022-12-07T21:13:52.383Z,6.32
2022-12-07T21:16:22.179Z,6.30
2022-12-07T21:18:49.106Z,6.35
2022-12-07T21:21:16.997Z,6.10
2022-12-07T21:23:44.018Z,5.60
2022-12-07T21:26:11.884Z,5.95
2022-12-07T21:28:38.632Z,5.95
2022-12-07T21:31:13.027Z,6.28
2022-12-07T21:33:40.220Z,6.00
2022-12-07T21:36:07.909Z,5.95
2022-12-07T21:38:34.662Z,5.70
2022-12-07T21:41:09.935Z,5.22
2022-12-07T21:43:36.647Z,5.05
2022-12-07T21:46:03.348Z,4.90
2022-12-07T21:48:30.176Z,4.22
2022-12-07T21:51:03.068Z,3.80
2022-12-07T21:53:29.818Z,3.33
2022-12-07T21:55:56.694Z,2.90
2022-12-07T21:58:23.398Z,3.40
2022-12-07T22:00:50.338Z,2.85
2022-12-07T22:03:19.568Z,3.10
2022-12-07T22:05:46.234Z,2.97
2022-12-07T22:08:13.037Z,2.55
2022-12-07T22:10:39.717Z,2.58
2022-12-07T22:13:06.298Z,2.40
2022-12-07T22:15:32.948Z,2.33
2022-12-07T22:17:59.585Z,2.75
2022-12-07T22:20:26.286Z,2.72
2022-12-07T22:22:53.176Z,3.10
2022-12-07T22:25:20.838Z,3.50
2022-12-07T22:27:47.532Z,3.05
2022-12-07T22:30:14.255Z,3.95
2022-12-07T22:32:49.288Z,3.83
2022-12-07T22:35:16.386Z,3.85
2022-12-07T22:37:43.025Z,4.35
2022-12-07T22:40:10.125Z,5.13
2022-12-07T22:42:36.700Z,5.43
2022-12-07T22:45:03.957Z,5.10
2022-12-07T22:47:30.813Z,4.90
2022-12-07T22:49:57.438Z,5.70
2022-12-07T22:52:24.042Z,6.20
2022-12-07T22:54:50.778Z,6.47
2022-12-07T22:57:17.460Z,6.97
2022-12-07T22:59:44.173Z,6.68
2022-12-07T23:02:10.822Z,5.65
2022-12-07T23:04:37.464Z,5.72
2022-12-07T23:07:04.096Z,4.85
2022-12-07T23:09:30.724Z,4.07
2022-12-07T23:11:57.315Z,2.65
2022-12-07T23:14:30.043Z,2.00
2022-12-07T23:16:56.681Z,2.00
2022-12-07T23:19:23.356Z,1.73
2022-12-07T23:21:50.037Z,0.95
2022-12-07T23:24:16.761Z,0.98
2022-12-07T23:26:43.812Z,0.93
2022-12-07T23:29:15.739Z,0.45
2022-12-07T23:31:44.200Z,0.60
2022-12-07T23:34:10.910Z,0.52
2022-12-07T23:36:37.589Z,0.73
2022-12-07T23:39:04.299Z,0.50
2022-12-07T23:41:31.177Z,0.65
2022-12-07T23:43:58.595Z,0.40
2022-12-07T23:46:27.805Z,0.40
2022-12-07T23:48:54.982Z,0.40
2022-12-07T23:51:21.737Z,0.52
2022-12-07T23:53:49.379Z,0.45
2022-12-07T23:56:26.383Z,0.40
2022-12-07T23:58:53.525Z,0.50
